Time;durP1;ratioP1;P1;durP2;ratioP2;P2;SDS_P1;SDS_P2;PMS_P1;PMS_P2;Temp;Humidity;BMP_temperature;BMP_pressure;BME280_temperature;BME280_humidity;BME280_pressure;Samples;Min_cycle;Max_cycle;Signal;HPM_P1;HPM_P2
2023/08/12 00:00:15;;;;;;;5.72;3.10;;;;;;;21.19;100.00;101441.28;6299634;28;20084;-71
2023/08/12 00:03:16;;;;;;;8.23;3.58;;;;;;;21.20;100.00;101437.63;6299724;28;20072;-71
2023/08/12 00:06:18;;;;;;;7.13;2.72;;;;;;;21.22;100.00;101433.00;6299485;28;20056;-71
2023/08/12 00:09:19;;;;;;;4.13;2.85;;;;;;;21.20;100.00;101434.94;6299810;28;20067;-71
2023/08/12 00:12:20;;;;;;;4.82;2.78;;;;;;;21.19;100.00;101435.94;6299575;28;20049;-71
2023/08/12 00:15:23;;;;;;;6.05;2.60;;;;;;;21.15;100.00;101429.16;6299479;28;20052;-71
2023/08/12 00:18:25;;;;;;;4.30;2.83;;;;;;;21.12;100.00;101428.56;6299667;28;20144;-71
2023/08/12 00:21:27;;;;;;;5.57;3.10;;;;;;;21.02;100.00;101426.69;6299255;28;20111;-71
2023/08/12 00:24:28;;;;;;;4.88;3.17;;;;;;;21.03;100.00;101430.25;6299263;28;20049;-71
2023/08/12 00:27:29;;;;;;;8.77;3.60;;;;;;;21.02;100.00;101423.19;6300185;28;20051;-71
2023/08/12 00:30:32;;;;;;;9.70;3.00;;;;;;;21.01;100.00;101424.16;6303984;28;20064;-70
2023/08/12 00:33:34;;;;;;;4.97;2.90;;;;;;;20.94;100.00;101417.69;6303698;28;20055;-71
2023/08/12 00:36:36;;;;;;;6.35;3.25;;;;;;;20.93;100.00;101415.97;6303948;28;20055;-71
2023/08/12 00:39:38;;;;;;;4.95;2.88;;;;;;;20.94;100.00;101415.84;6303670;28;20071;-71
2023/08/12 00:42:39;;;;;;;6.20;2.88;;;;;;;20.93;100.00;101415.97;6291859;28;20041;-70
2023/08/12 00:45:43;;;;;;;6.30;3.70;;;;;;;20.91;100.00;101421.44;6287495;28;20045;-71
2023/08/12 00:48:44;;;;;;;14.02;3.40;;;;;;;20.91;100.00;101416.09;6294995;28;20357;-71
2023/08/12 00:51:46;;;;;;;4.57;2.75;;;;;;;20.91;100.00;101402.75;6303341;28;20060;-71
2023/08/12 00:54:48;;;;;;;5.05;3.00;;;;;;;20.91;100.00;101404.56;6303029;28;20044;-71
2023/08/12 00:57:50;;;;;;;9.25;2.78;;;;;;;20.91;100.00;101399.22;6303324;28;20052;-70
2023/08/12 01:00:53;;;;;;;4.22;2.60;;;;;;;20.92;100.00;101390.22;6303073;28;20135;-71
2023/08/12 01:03:54;;;;;;;4.80;2.50;;;;;;;20.93;100.00;101402.59;6302924;28;20406;-71
2023/08/12 01:06:56;;;;;;;4.57;2.75;;;;;;;20.93;100.00;101395.44;6303103;28;20048;-71
2023/08/12 01:09:57;;;;;;;5.70;2.35;;;;;;;20.91;100.00;101397.41;6303106;28;20052;-71
2023/08/12 01:13:19;;;;;;;7.72;3.17;;;;;;;20.92;100.00;101395.56;6302791;28;20048;-71
2023/08/12 01:16:23;;;;;;;5.30;2.40;;;;;;;20.93;100.00;101391.91;6302900;28;20135;-71
2023/08/12 01:19:31;;;;;;;5.55;2.58;;;;;;;20.92;100.00;101392.91;6302782;28;20101;-71
2023/08/12 01:22:36;;;;;;;3.72;2.42;;;;;;;20.93;100.00;101382.06;6302754;28;20048;-71
2023/08/12 01:25:39;;;;;;;8.00;2.80;;;;;;;20.98;100.00;101405.72;6302329;28;20076;-70
2023/08/12 01:28:40;;;;;;;5.47;2.78;;;;;;;20.97;100.00;101414.72;6295860;28;20352;-71
2023/08/12 01:31:49;;;;;;;7.25;3.40;;;;;;;20.88;100.00;101413.69;6293953;28;20048;-71
2023/08/12 01:34:58;;;;;;;5.80;2.92;;;;;;;20.92;100.00;101412.44;6302415;28;20052;-71
2023/08/12 01:38:03;;;;;;;5.63;2.92;;;;;;;20.96;100.00;101397.84;6302391;28;20048;-71
2023/08/12 01:41:07;;;;;;;3.88;2.50;;;;;;;21.00;100.00;101393.94;6302071;28;20456;-71
2023/08/12 01:44:09;;;;;;;4.60;2.70;;;;;;;21.01;100.00;101386.75;6301864;28;20044;-71
2023/08/12 01:47:11;;;;;;;4.93;2.60;;;;;;;21.08;100.00;101387.06;6302287;28;20056;-71
2023/08/12 01:50:12;;;;;;;2.92;1.95;;;;;;;21.09;100.00;101384.25;6301811;28;20368;-71
2023/08/12 01:53:14;;;;;;;3.67;2.25;;;;;;;21.10;100.00;101385.94;6301786;28;20048;-71
2023/08/12 01:56:17;;;;;;;4.22;2.10;;;;;;;21.12;100.00;101381.34;6301649;28;20361;-71
2023/08/12 01:59:18;;;;;;;3.90;2.10;;;;;;;21.07;100.00;101374.66;6301677;28;20049;-71
2023/08/12 02:02:20;;;;;;;5.32;2.22;;;;;;;21.00;100.00;101383.25;6301759;28;20056;-71
2023/08/12 02:05:21;;;;;;;4.35;3.05;;;;;;;21.01;100.00;101382.25;6301277;28;20425;-70
2023/08/12 02:08:23;;;;;;;5.43;3.20;;;;;;;20.96;100.00;101384.47;6301717;28;20052;-71
2023/08/12 02:11:25;;;;;;;4.65;3.03;;;;;;;20.87;100.00;101401.31;6301357;28;20052;-71
2023/08/12 02:14:27;;;;;;;3.75;2.58;;;;;;;20.84;100.00;101398.06;6301351;28;20059;-71
2023/08/12 02:17:28;;;;;;;4.90;2.90;;;;;;;20.83;100.00;101401.72;6301246;28;20334;-71
2023/08/12 02:20:30;;;;;;;3.65;2.75;;;;;;;20.80;100.00;101396.63;6301346;28;20044;-71
2023/08/12 02:23:31;;;;;;;5.00;2.80;;;;;;;20.74;100.00;101414.03;6301099;28;20056;-71
2023/08/12 02:26:34;;;;;;;4.70;3.17;;;;;;;20.64;100.00;101397.09;6300019;28;20467;-71
2023/08/12 02:29:35;;;;;;;6.15;3.40;;;;;;;20.68;100.00;101401.22;6301262;28;20056;-71
2023/08/12 02:32:37;;;;;;;4.30;2.95;;;;;;;20.64;100.00;101397.09;6300889;28;20049;-71
2023/08/12 02:35:38;;;;;;;6.60;3.78;;;;;;;20.47;100.00;101386.03;6300935;28;20048;-71
2023/08/12 02:38:40;;;;;;;5.47;3.75;;;;;;;20.39;100.00;101390.28;6300981;28;20055;-71
2023/08/12 02:41:43;;;;;;;7.65;3.70;;;;;;;20.35;100.00;101387.06;6294625;28;20455;-71
2023/08/12 02:44:44;;;;;;;6.47;3.50;;;;;;;20.34;100.00;101377.31;6286360;28;20051;-71
2023/08/12 02:47:46;;;;;;;6.93;4.25;;;;;;;20.27;100.00;101374.34;6296666;28;20462;-70
2023/08/12 02:50:47;;;;;;;6.63;3.80;;;;;;;20.30;100.00;101383.06;6300223;28;20059;-71
2023/08/12 02:53:49;;;;;;;10.27;4.43;;;;;;;20.21;100.00;101364.19;6300273;28;20054;-71
2023/08/12 02:56:52;;;;;;;7.80;3.97;;;;;;;20.23;100.00;101361.38;6300464;28;20486;-70
2023/08/12 02:59:53;;;;;;;6.72;3.90;;;;;;;20.21;100.00;101365.97;6300271;28;20355;-70
2023/08/12 03:02:55;;;;;;;7.45;4.72;;;;;;;20.20;100.00;101374.97;6300549;28;20049;-71
2023/08/12 03:05:56;;;;;;;8.40;5.28;;;;;;;20.16;100.00;101379.72;6300305;28;20045;-71
2023/08/12 03:08:58;;;;;;;8.88;4.20;;;;;;;20.18;100.00;101376.94;6300323;28;20368;-70
2023/08/12 03:12:02;;;;;;;8.95;4.72;;;;;;;20.12;100.00;101372.97;6294105;28;20048;-70
2023/08/12 03:15:05;;;;;;;6.95;4.07;;;;;;;20.16;100.00;101379.72;6271596;28;20044;-71
2023/08/12 03:18:07;;;;;;;8.25;4.97;;;;;;;20.18;100.00;101383.13;6275248;28;20049;-70
2023/08/12 03:21:09;;;;;;;10.60;5.97;;;;;;;20.16;100.00;101378.88;6274832;28;20067;-70
2023/08/12 03:24:11;;;;;;;8.02;5.18;;;;;;;20.23;100.00;101377.41;6274968;28;20053;-71
2023/08/12 03:27:13;;;;;;;9.85;5.82;;;;;;;20.17;100.00;101377.91;6274544;28;20045;-71
2023/08/12 03:30:15;;;;;;;6.97;4.60;;;;;;;20.14;100.00;101376.34;6274881;28;20049;-70
2023/08/12 03:33:16;;;;;;;17.60;6.07;;;;;;;20.18;100.00;101384.94;6277628;28;20138;-70
2023/08/12 03:36:18;;;;;;;7.63;5.45;;;;;;;20.22;100.00;101392.56;6277084;28;20045;-71
2023/08/12 03:39:19;;;;;;;6.35;3.42;;;;;;;20.15;100.00;101386.03;6274900;28;20056;-71
2023/08/12 03:42:22;;;;;;;9.15;5.45;;;;;;;20.13;100.00;101381.81;6275057;28;20052;-71
2023/08/12 03:45:23;;;;;;;7.65;4.72;;;;;;;20.09;100.00;101383.03;6274750;28;20048;-71
2023/08/12 03:48:25;;;;;;;8.38;4.93;;;;;;;20.08;100.00;101381.34;6275106;28;20442;-71
2023/08/12 03:51:26;;;;;;;8.98;5.10;;;;;;;20.07;100.00;101375.16;6274916;28;20049;-71
2023/08/12 03:54:28;;;;;;;7.75;4.80;;;;;;;20.09;100.00;101375.03;6274893;28;20052;-71
2023/08/12 03:57:31;;;;;;;9.43;5.57;;;;;;;20.02;100.00;101386.19;6275086;28;20049;-71
2023/08/12 04:00:32;;;;;;;10.77;5.32;;;;;;;19.98;100.00;101379.47;6274739;28;20350;-71
2023/08/12 04:03:34;;;;;;;7.07;5.22;;;;;;;20.00;100.00;101379.31;6277758;28;20053;-71
2023/08/12 04:06:35;;;;;;;7.85;4.72;;;;;;;20.06;100.00;101384.13;6279606;28;20056;-71
2023/08/12 04:09:37;;;;;;;10.68;6.00;;;;;;;20.06;100.00;101384.13;6279832;28;20433;-71
2023/08/12 04:12:41;;;;;;;10.10;6.18;;;;;;;19.97;100.00;101382.22;6279355;28;20053;-71
2023/08/12 04:15:42;;;;;;;10.20;5.22;;;;;;;20.04;100.00;101382.59;6279461;28;20060;-71
2023/08/12 04:18:44;;;;;;;10.57;6.30;;;;;;;20.03;100.00;101387.06;6279333;28;20487;-71
2023/08/12 04:21:46;;;;;;;12.38;6.40;;;;;;;19.95;100.00;101381.53;6279359;28;20060;-71
2023/08/12 04:24:48;;;;;;;13.18;7.32;;;;;;;19.90;100.00;101386.41;6278841;28;20349;-71
2023/08/12 04:27:50;;;;;;;10.27;5.85;;;;;;;19.94;100.00;101386.00;6279085;28;20060;-71
2023/08/12 04:30:52;;;;;;;9.50;6.07;;;;;;;19.85;100.00;101396.56;6279354;28;20049;-71
2023/08/12 04:33:53;;;;;;;13.25;7.28;;;;;;;19.74;100.00;101403.63;6278757;28;20138;-71
2023/08/12 04:36:55;;;;;;;12.32;7.20;;;;;;;19.73;100.00;101396.63;6278896;28;20369;-71
2023/08/12 04:39:56;;;;;;;11.00;5.82;;;;;;;19.74;100.00;101392.97;6278814;28;20056;-71
2023/08/12 04:42:59;;;;;;;10.50;5.85;;;;;;;19.75;100.00;101394.66;6279456;28;20056;-72
2023/08/12 04:46:01;;;;;;;13.32;7.30;;;;;;;19.61;100.00;101389.59;6292748;28;20044;-71
2023/08/12 04:49:02;;;;;;;13.68;7.55;;;;;;;19.62;100.00;101393.13;6303359;28;20056;-71
2023/08/12 04:52:04;;;;;;;13.70;8.15;;;;;;;19.59;100.00;101388.88;6291030;28;20063;-70
2023/08/12 04:55:06;;;;;;;12.85;7.35;;;;;;;19.56;100.00;101396.25;6293007;28;20428;-71
2023/08/12 04:58:09;;;;;;;18.67;8.52;;;;;;;19.46;100.00;101388.16;6303501;28;20049;-73
2023/08/12 05:01:10;;;;;;;13.57;7.05;;;;;;;19.60;100.00;101379.03;6303030;28;20333;-71
2023/08/12 05:04:12;;;;;;;14.35;8.30;;;;;;;19.66;100.00;101368.75;6302976;28;20044;-71
2023/08/12 05:07:14;;;;;;;15.93;7.63;;;;;;;19.68;100.00;101364.16;6303276;28;20058;-71
2023/08/12 05:10:16;;;;;;;12.75;7.97;;;;;;;19.74;100.00;101378.78;6303147;28;20056;-71
2023/08/12 05:13:19;;;;;;;14.93;7.45;;;;;;;19.73;100.00;101380.63;6302548;28;20045;-71
2023/08/12 05:16:20;;;;;;;13.30;7.68;;;;;;;19.77;100.00;101374.06;6302829;28;20067;-71
2023/08/12 05:19:22;;;;;;;13.88;7.78;;;;;;;19.73;100.00;101375.28;6303052;28;20048;-71
2023/08/12 05:22:23;;;;;;;13.45;8.00;;;;;;;19.72;100.00;101378.94;6302955;28;20052;-71
2023/08/12 05:25:25;;;;;;;15.77;8.05;;;;;;;19.70;100.00;101369.34;6302482;28;20056;-71
2023/08/12 05:28:28;;;;;;;13.60;8.65;;;;;;;19.63;100.00;101377.00;6298041;28;20060;-71
2023/08/12 05:31:30;;;;;;;11.50;7.68;;;;;;;19.64;100.00;101375.19;6294156;28;20048;-71
2023/08/12 05:34:31;;;;;;;13.15;8.73;;;;;;;19.67;100.00;101372.28;6302153;28;20467;-71
2023/08/12 05:37:33;;;;;;;10.27;6.68;;;;;;;19.72;100.00;101370.09;6302462;28;20060;-71
2023/08/12 05:40:34;;;;;;;15.48;7.95;;;;;;;19.81;100.00;101365.81;6302143;28;20052;-71
2023/08/12 05:43:37;;;;;;;12.80;7.00;;;;;;;19.76;100.00;101369.69;6302150;28;20044;-71
2023/08/12 05:46:38;;;;;;;12.52;5.30;;;;;;;19.81;100.00;101371.16;6302089;28;20052;-71
2023/08/12 05:49:40;;;;;;;16.23;8.75;;;;;;;19.81;100.00;101363.16;6302175;28;20052;-71
2023/08/12 05:52:41;;;;;;;12.23;7.53;;;;;;;19.83;100.00;101361.19;6301630;28;20080;-71
2023/08/12 05:55:42;;;;;;;12.00;8.77;;;;;;;19.77;100.00;101366.06;6301952;28;20048;-71
2023/08/12 05:58:45;;;;;;;16.20;8.95;;;;;;;19.83;100.00;101363.84;6301923;28;20799;-71
2023/08/12 06:01:47;;;;;;;16.25;9.27;;;;;;;19.79;100.00;101362.41;6301594;28;20051;-71
2023/08/12 06:04:48;;;;;;;14.50;9.02;;;;;;;19.76;100.00;101363.53;6301443;28;20044;-70
2023/08/12 06:07:50;;;;;;;14.48;9.27;;;;;;;19.83;100.00;101366.53;6301915;28;20131;-71
2023/08/12 06:10:51;;;;;;;14.15;8.60;;;;;;;19.82;100.00;101368.34;6301779;28;20060;-71
2023/08/12 06:13:54;;;;;;;14.27;9.23;;;;;;;19.81;100.00;101363.16;6301150;28;20052;-71
2023/08/12 06:16:55;;;;;;;13.75;7.20;;;;;;;19.77;100.00;101363.38;6301548;28;20040;-71
2023/08/12 06:19:57;;;;;;;12.35;7.85;;;;;;;19.79;100.00;101357.91;6301195;28;20050;-71
2023/08/12 06:22:58;;;;;;;12.43;7.13;;;;;;;19.87;100.00;101360.81;6301105;28;20456;-71
2023/08/12 06:25:59;;;;;;;9.90;6.40;;;;;;;19.87;100.00;101352.81;6300230;28;20052;-71
2023/08/12 06:29:02;;;;;;;18.90;9.25;;;;;;;19.90;100.00;101341.88;6301311;28;20044;-71
2023/08/12 06:32:04;;;;;;;16.80;9.25;;;;;;;19.90;100.00;101336.56;6301059;28;20071;-71
2023/08/12 06:35:06;;;;;;;22.35;10.25;;;;;;;19.89;100.00;101326.00;6300610;28;20051;-71
2023/08/12 06:38:09;;;;;;;16.38;8.73;;;;;;;19.92;100.00;101334.59;6301018;28;20045;-71
2023/08/12 06:41:11;;;;;;;19.02;10.02;;;;;;;19.96;100.00;101325.34;6300695;28;20131;-71
2023/08/12 06:44:13;;;;;;;16.52;9.35;;;;;;;19.88;100.00;101326.97;6287965;28;20053;-71
2023/08/12 06:47:15;;;;;;;14.50;8.30;;;;;;;19.87;100.00;101325.28;6290839;28;20051;-71
2023/08/12 06:50:16;;;;;;;15.95;9.07;;;;;;;19.85;100.00;101322.75;6287163;28;20049;-71
2023/08/12 06:53:18;;;;;;;13.52;7.85;;;;;;;19.87;100.00;101320.78;6275753;28;20056;-71
2023/08/12 06:56:19;;;;;;;16.83;8.73;;;;;;;19.85;100.00;101324.53;6283874;28;20041;-71
2023/08/12 06:59:22;;;;;;;13.93;8.68;;;;;;;19.91;100.00;101316.91;6288228;28;20060;-71
2023/08/12 07:02:24;;;;;;;12.82;8.55;;;;;;;19.97;100.00;101318.19;6275484;28;20065;-71
2023/08/12 07:05:25;;;;;;;14.52;8.25;;;;;;;20.02;100.00;101318.66;6275259;28;20455;-71
2023/08/12 07:08:27;;;;;;;12.32;7.38;;;;;;;19.97;100.00;101307.53;6275407;28;20349;-71
2023/08/12 07:11:29;;;;;;;14.25;8.45;;;;;;;19.95;100.00;101306.81;6275629;28;20073;-71
2023/08/12 07:14:32;;;;;;;10.98;7.03;;;;;;;19.98;100.00;101301.22;6274584;28;20051;-71
2023/08/12 07:17:33;;;;;;;13.10;8.13;;;;;;;20.07;100.00;101297.75;6275177;28;20049;-71
2023/08/12 07:20:34;;;;;;;16.90;10.23;;;;;;;20.04;100.00;101302.53;6275108;28;20060;-71
2023/08/12 07:23:36;;;;;;;13.95;8.93;;;;;;;20.07;100.00;101294.25;6285551;28;20056;-71
2023/08/12 07:26:37;;;;;;;15.80;8.95;;;;;;;20.02;100.00;101297.31;6294997;28;20040;-71
2023/08/12 07:29:40;;;;;;;19.17;9.00;;;;;;;20.10;100.00;101294.00;6274978;28;20060;-71
2023/08/12 07:32:41;;;;;;;11.73;7.03;;;;;;;20.19;100.00;101299.41;6275051;28;20060;-71
2023/08/12 07:35:43;;;;;;;14.85;9.35;;;;;;;20.16;100.00;101296.97;6275179;28;20053;-71
2023/08/12 07:38:44;;;;;;;17.17;8.70;;;;;;;20.17;100.00;101292.50;6280073;28;20045;-71
2023/08/12 07:41:47;;;;;;;13.82;8.55;;;;;;;20.22;100.00;101303.66;6283786;28;20052;-71
2023/08/12 07:44:49;;;;;;;12.43;7.93;;;;;;;20.26;100.00;101289.06;6296504;28;20457;-71
2023/08/12 07:47:51;;;;;;;15.75;9.63;;;;;;;20.26;100.00;101289.06;6304884;28;20048;-71
2023/08/12 07:50:57;;;;;;;16.80;9.38;;;;;;;20.25;100.00;101290.00;6320806;22;20458;-72
2023/08/12 07:53:58;;;;;;;17.48;8.98;;;;;;;20.22;100.00;101292.97;6279022;28;20457;-73
2023/08/12 07:56:59;;;;;;;16.35;8.40;;;;;;;20.40;100.00;101290.53;6260080;28;20053;-72
2023/08/12 08:00:02;;;;;;;15.80;8.43;;;;;;;20.44;100.00;101290.16;6255208;28;20052;-72
2023/08/12 08:03:04;;;;;;;20.33;8.80;;;;;;;20.45;100.00;101283.81;6254938;28;20452;-72
2023/08/12 08:06:06;;;;;;;21.70;10.23;;;;;;;20.56;100.00;101293.59;6254890;28;20050;-72
2023/08/12 08:09:07;;;;;;;14.65;9.00;;;;;;;20.58;100.00;101294.31;6254826;28;20054;-72
2023/08/12 08:12:09;;;;;;;11.88;8.18;;;;;;;20.62;100.00;101289.53;6254836;28;20071;-72
2023/08/12 08:15:12;;;;;;;12.93;7.70;;;;;;;20.68;100.00;101292.53;6254469;28;20060;-71
2023/08/12 08:18:13;;;;;;;11.85;7.40;;;;;;;20.76;100.00;101283.88;6254592;28;20050;-71
2023/08/12 08:21:15;;;;;;;13.35;8.35;;;;;;;20.73;100.00;101279.63;6254771;28;20058;-72
2023/08/12 08:24:16;;;;;;;12.73;7.03;;;;;;;20.71;100.00;101284.28;6254159;28;20053;-72
2023/08/12 08:27:18;;;;;;;14.65;7.72;;;;;;;20.68;100.00;101279.19;6254465;28;20041;-70
2023/08/12 08:30:22;;;;;;;12.13;7.28;;;;;;;20.70;100.00;101271.88;6254619;28;20053;-72
2023/08/12 08:33:25;;;;;;;8.15;5.13;;;;;;;20.72;100.00;101263.75;6254299;28;20045;-69
2023/08/12 08:36:27;;;;;;;14.30;6.68;;;;;;;20.70;100.00;101266.53;6253926;28;20446;-72
2023/08/12 08:39:28;;;;;;;13.93;7.53;;;;;;;20.67;100.00;101269.50;6254330;28;20090;-75
2023/08/12 08:42:30;;;;;;;15.65;6.93;;;;;;;20.60;100.00;101268.31;6253482;28;20045;-72
2023/08/12 08:45:34;;;;;;;12.63;6.07;;;;;;;20.59;100.00;101285.31;6262923;28;20053;-72
2023/08/12 08:48:36;;;;;;;6.05;3.97;;;;;;;20.60;100.00;101292.34;6274351;28;20045;-72
2023/08/12 08:51:37;;;;;;;11.50;5.50;;;;;;;20.62;100.00;101286.88;6264051;28;20072;-72
2023/08/12 08:54:40;;;;;;;10.02;4.70;;;;;;;20.62;100.00;101287.75;6252473;28;20049;-70
2023/08/12 08:57:44;;;;;;;14.27;5.65;;;;;;;20.63;100.00;101281.41;6265208;28;20056;-71
2023/08/12 09:00:47;;;;;;;9.18;5.47;;;;;;;20.62;100.00;101284.19;6257929;28;20048;-70
2023/08/12 09:03:53;;;;;;;10.90;6.80;;;;;;;20.59;100.00;101277.31;6265727;28;20045;-71
2023/08/12 09:06:55;;;;;;;16.27;7.20;;;;;;;20.63;100.00;101277.91;6263571;28;20125;-71
2023/08/12 09:09:58;;;;;;;13.32;5.90;;;;;;;20.63;100.00;101270.72;6253024;28;20446;-71
2023/08/12 09:13:01;;;;;;;13.18;7.70;;;;;;;20.62;100.00;101276.19;6261649;28;20045;-70
2023/08/12 09:16:04;;;;;;;12.02;7.43;;;;;;;20.61;100.00;101277.16;6252905;28;20120;-70
2023/08/12 09:19:06;;;;;;;13.88;8.25;;;;;;;20.56;100.00;101282.06;6253453;28;20057;-71
2023/08/12 09:22:09;;;;;;;10.77;7.32;;;;;;;20.59;100.00;101276.47;6253054;28;20045;-71
2023/08/12 09:25:11;;;;;;;12.52;7.13;;;;;;;20.54;100.00;101279.53;6252979;28;20135;-71
2023/08/12 09:28:13;;;;;;;11.20;6.63;;;;;;;20.55;100.00;101269.72;6253146;28;20055;-71
2023/08/12 09:31:25;;;;;;;15.25;8.70;;;;;;;20.56;100.00;101256.22;6252805;28;20052;-71
2023/08/12 09:34:26;;;;;;;13.32;8.20;;;;;;;20.56;100.00;101266.88;6252753;28;20053;-71
2023/08/12 09:37:28;;;;;;;17.77;7.80;;;;;;;20.54;100.00;101262.69;6252716;28;20053;-71
2023/08/12 09:40:31;;;;;;;12.00;7.45;;;;;;;20.52;100.00;101260.97;6252724;28;20049;-71
2023/08/12 09:43:32;;;;;;;14.60;7.70;;;;;;;20.54;100.00;101252.00;6252416;28;20374;-70
2023/08/12 09:46:35;;;;;;;16.98;8.70;;;;;;;20.55;100.00;101248.34;6253152;28;20057;-70
2023/08/12 09:49:38;;;;;;;27.10;9.90;;;;;;;20.61;100.00;101234.44;6266448;28;20057;-71
2023/08/12 09:52:40;;;;;;;15.90;8.65;;;;;;;20.72;100.00;101235.19;6266109;28;20049;-71
2023/08/12 09:55:43;;;;;;;18.08;9.27;;;;;;;20.73;100.00;101236.03;6260669;28;20055;-71
2023/08/12 09:58:48;;;;;;;15.20;8.65;;;;;;;20.80;100.00;101245.19;6271978;28;20045;-71
2023/08/12 10:01:53;;;;;;;15.25;8.68;;;;;;;20.81;100.00;101230.88;6275807;28;20048;-71
2023/08/12 10:04:55;;;;;;;16.88;8.80;;;;;;;20.85;100.00;101224.28;6272518;28;20049;-71
2023/08/12 10:07:58;;;;;;;12.05;6.40;;;;;;;20.90;100.00;101222.03;6264632;28;20399;-70
2023/08/12 10:10:59;;;;;;;20.85;9.00;;;;;;;20.94;100.00;101227.97;6264322;28;20347;-70
2023/08/12 10:14:02;;;;;;;13.20;7.22;;;;;;;20.93;100.00;101224.41;6265009;28;20045;-70
2023/08/12 10:17:06;;;;;;;16.08;7.68;;;;;;;21.00;100.00;101232.75;6265995;28;20037;-70
2023/08/12 10:20:09;;;;;;;15.40;9.30;;;;;;;21.10;100.00;101241.63;6262989;28;20045;-71
2023/08/12 10:23:18;;;;;;;17.02;9.50;;;;;;;21.00;100.00;101238.09;6266009;28;20048;-71
2023/08/12 10:26:20;;;;;;;18.55;8.85;;;;;;;21.03;100.00;101216.44;6276459;28;20045;-71
2023/08/12 10:29:23;;;;;;;17.75;9.02;;;;;;;21.08;100.00;101234.75;6276159;28;20049;-71
2023/08/12 10:32:26;;;;;;;14.15;8.30;;;;;;;21.20;100.00;101226.44;6276508;28;20063;-71
2023/08/12 10:35:42;;;;;;;22.30;9.70;;;;;;;21.23;100.00;101206.59;6264531;28;20064;-69
2023/08/12 10:38:44;;;;;;;13.98;9.50;;;;;;;21.39;100.00;101209.63;6276098;28;20349;-71
2023/08/12 10:41:55;;;;;;;11.63;7.57;;;;;;;21.40;100.00;101208.63;6276008;28;20384;-71
2023/08/12 10:44:58;;;;;;;18.15;9.00;;;;;;;21.36;100.00;101193.84;6275887;28;20372;-68
2023/08/12 10:48:18;;;;;;;12.63;8.10;;;;;;;21.47;100.00;101182.97;6275698;28;20041;-69
2023/08/12 10:51:40;;;;;;;13.80;7.80;;;;;;;21.55;100.00;101181.44;6275762;28;20141;-70
2023/08/12 10:54:41;;;;;;;16.08;7.80;;;;;;;21.65;100.00;101172.41;6272959;28;20051;-69
2023/08/12 10:57:43;;;;;;;12.77;7.90;;;;;;;21.59;100.00;101177.50;6259215;28;20045;-69
2023/08/12 11:00:44;;;;;;;12.85;7.45;;;;;;;21.56;100.00;101177.78;6250730;28;20057;-69
2023/08/12 11:03:49;;;;;;;10.45;6.82;;;;;;;21.69;100.00;101167.63;6250645;28;20056;-69
2023/08/12 11:06:50;;;;;;;9.93;6.57;;;;;;;21.68;100.00;101160.59;6250658;28;20041;-69
2023/08/12 11:09:53;;;;;;;10.38;6.13;;;;;;;21.83;100.00;101161.81;6250756;28;20362;-69
2023/08/12 11:12:56;;;;;;;9.93;5.70;;;;;;;21.77;100.00;101157.06;6249995;28;20061;-69
2023/08/12 11:16:08;;;;;;;6.90;4.65;;;;;;;21.86;100.00;101158.03;6250804;28;20073;-69
2023/08/12 11:19:11;;;;;;;7.47;5.18;;;;;;;21.97;100.00;101153.31;6250669;28;20358;-69
2023/08/12 11:22:14;;;;;;;7.55;4.90;;;;;;;22.00;100.00;101139.66;6250779;28;20051;-69
2023/08/12 11:25:16;;;;;;;8.18;5.50;;;;;;;21.92;100.00;101144.88;6250236;28;20445;-69
2023/08/12 11:28:19;;;;;;;7.60;4.97;;;;;;;21.88;100.00;101146.16;6258386;28;20052;-69
2023/08/12 11:31:22;;;;;;;6.88;4.55;;;;;;;21.87;100.00;101138.28;6261421;28;20057;-70
2023/08/12 11:34:25;;;;;;;7.50;4.75;;;;;;;21.79;100.00;101134.50;6267582;28;20049;-69
2023/08/12 11:37:27;;;;;;;8.52;4.25;;;;;;;21.74;100.00;101133.25;6250201;28;20076;-69
2023/08/12 11:40:29;;;;;;;5.78;4.15;;;;;;;21.69;100.00;101124.81;6260631;28;20057;-69
2023/08/12 11:43:30;;;;;;;5.60;4.13;;;;;;;21.63;100.00;101107.53;6263331;28;20054;-69
2023/08/12 11:46:33;;;;;;;5.90;4.38;;;;;;;21.66;100.00;101109.06;6257341;28;20445;-69
2023/08/12 11:49:36;;;;;;;7.85;4.88;;;;;;;21.61;100.00;101100.63;6259782;28;20046;-69
2023/08/12 11:52:38;;;;;;;6.35;4.50;;;;;;;21.56;100.00;101090.34;6266217;28;20045;-69
2023/08/12 11:55:40;;;;;;;6.65;4.50;;;;;;;21.58;100.00;101092.91;6274847;28;20053;-69
2023/08/12 11:58:41;;;;;;;7.00;4.50;;;;;;;21.50;100.00;101102.47;6274743;28;20045;-69
2023/08/12 12:01:48;;;;;;;6.22;4.35;;;;;;;21.53;100.00;101102.19;6264557;28;20434;-68
2023/08/12 12:04:52;;;;;;;5.30;3.83;;;;;;;21.49;100.00;101106.16;6262266;28;20049;-68
2023/08/12 12:07:54;;;;;;;4.75;3.78;;;;;;;21.50;100.00;101083.75;6274698;28;20045;-68
2023/08/12 12:10:56;;;;;;;5.22;3.70;;;;;;;21.52;100.00;101088.94;6274896;28;20053;-69
2023/08/12 12:13:57;;;;;;;5.75;3.75;;;;;;;21.56;100.00;101095.69;6273447;28;20052;-69
2023/08/12 12:16:58;;;;;;;5.90;3.50;;;;;;;21.59;100.00;101106.13;6274570;28;20045;-69
2023/08/12 12:20:01;;;;;;;4.75;3.38;;;;;;;21.63;100.00;101114.72;6274876;28;20049;-69
2023/08/12 12:23:07;;;;;;;5.45;3.75;;;;;;;21.59;100.00;101115.97;6274818;28;20060;-69
2023/08/12 12:26:10;;;;;;;8.50;4.40;;;;;;;21.50;100.00;101118.53;6278906;28;20057;-69
2023/08/12 12:29:12;;;;;;;5.57;3.67;;;;;;;21.37;100.00;101109.97;6279082;28;20052;-68
2023/08/12 12:32:13;;;;;;;8.38;5.45;;;;;;;21.31;100.00;101110.53;6278890;28;20064;-68
2023/08/12 12:35:16;;;;;;;9.45;5.50;;;;;;;21.31;100.00;101109.66;6272899;28;20058;-72
2023/08/12 12:38:17;;;;;;;7.57;5.97;;;;;;;21.23;100.00;101099.69;6255230;28;20064;-71
2023/08/12 12:41:19;;;;;;;12.25;6.78;;;;;;;21.23;100.00;101100.50;6252220;28;20057;-70
2023/08/12 12:44:20;;;;;;;11.82;6.68;;;;;;;21.19;100.00;101103.63;6253893;28;20057;-71
2023/08/12 12:47:22;;;;;;;13.60;7.60;;;;;;;21.21;100.00;101104.31;6262840;28;20057;-70
2023/08/12 12:50:24;;;;;;;12.18;7.80;;;;;;;21.24;100.00;101104.03;6264939;28;20046;-72
2023/08/12 12:53:26;;;;;;;10.13;6.18;;;;;;;21.38;100.00;101098.28;6261109;28;20050;-73
2023/08/12 12:56:27;;;;;;;7.82;5.72;;;;;;;21.70;100.00;101097.91;6261402;28;20056;-71
2023/08/12 12:59:28;;;;;;;7.43;5.60;;;;;;;21.99;100.00;101086.28;6278318;28;20052;-71
2023/08/12 13:02:30;;;;;;;9.27;6.18;;;;;;;22.28;100.00;101081.63;6277616;28;20052;-70
2023/08/12 13:05:33;;;;;;;10.05;5.85;;;;;;;22.21;100.00;101074.34;6277616;28;20353;-71
2023/08/12 13:08:34;;;;;;;12.68;5.22;;;;;;;22.23;100.00;101072.38;6278373;28;20049;-68
2023/08/12 13:11:36;;;;;;;9.15;4.32;;;;;;;22.23;100.00;101078.56;6278019;28;20053;-70
2023/08/12 13:14:37;;;;;;;6.68;4.28;;;;;;;22.32;100.00;101076.00;6277860;28;20040;-68
2023/08/12 13:17:38;;;;;;;5.13;3.67;;;;;;;22.31;100.00;101077.00;6277944;28;20068;-69
2023/08/12 13:20:41;;;;;;;4.45;2.63;;;;;;;22.27;100.00;101077.28;6278151;28;20056;-70
2023/08/12 13:23:42;;;;;;;3.15;2.40;;;;;;;22.40;100.00;101082.28;6277617;28;20052;-70
2023/08/12 13:26:44;;;;;;;2.17;1.88;;;;;;;22.45;100.00;101093.38;6278044;28;20049;-70
2023/08/12 13:29:45;;;;;;;2.42;1.90;;;;;;;22.46;100.00;101089.72;6277902;28;20049;-70
2023/08/12 13:32:47;;;;;;;4.75;2.00;;;;;;;22.53;100.00;101084.63;6277361;28;20446;-70
2023/08/12 13:35:49;;;;;;;2.40;1.90;;;;;;;22.64;100.00;101103.13;6277530;28;20135;-70
2023/08/12 13:38:51;;;;;;;1.92;1.60;;;;;;;22.64;100.00;101094.25;6277397;28;20052;-68
2023/08/12 13:41:52;;;;;;;1.95;1.50;;;;;;;22.65;100.00;101093.25;6277424;28;20049;-70
2023/08/12 13:44:53;;;;;;;1.70;1.60;;;;;;;22.58;100.00;101102.91;6277149;28;20051;-70
2023/08/12 13:47:55;;;;;;;2.65;1.77;;;;;;;22.52;100.00;101099.81;6277436;28;20081;-70
2023/08/12 13:50:57;;;;;;;3.15;1.98;;;;;;;22.63;100.00;101100.63;6298771;22;20124;-71